»·PEaware :: N78JW KSNA-KCRQ

N78JW :: KSNA-KCRQ

FLIGHT INFORMATION

Flight Status: Arrived
Operator: Privately registered:
United States
More flights under this callsign
Pilot: Jon W. (9193)
Aircraft: CESSNA 172 SKYHAWK
(C172)
More flights by this aircraft type
Origin: KSNA John Wayne-Orange Co
United States
Destination: KCRQ McClellan-Palomar
United States
More flights between these airports :: More routes between these airports
Route: V23 OCN
File this flight plan on PilotEdge
Remarks: For the I-2 rating
Altitude:
(Current/Filed)
5,000ft
Speed:
(Current/Filed)
117kts
Departed: 12-Oct-17 10:05 PM
Arrived: 12-Oct-17 10:46 PM
Distance/Time
Traveled:
44nm/0:41
Distance/Time
To Go:
Arrived

Flight Plot

Page will automatically refresh every two minutes.


Map Options




Map Legend


Flown Route
Filed Route
Departure Airport
Arrival Airport
Navaid (VOR, NDB)
Fix

Horizontal Profiles

Position Reports

Time Latitude Longitude Heading Altitude Ground
Speed
12-Oct-17 21:56 33.675369 -117.871565 219 59ft 0kts
12-Oct-17 21:57 33.675360 -117.871574 219 59ft 0kts
12-Oct-17 21:58 33.675351 -117.871583 219 59ft 0kts
12-Oct-17 21:59 33.675342 -117.871592 219 59ft 0kts
12-Oct-17 22:00 33.675332 -117.871602 219 59ft 0kts
12-Oct-17 22:01 33.675324 -117.871610 219 59ft 0kts
12-Oct-17 22:02 33.675315 -117.871619 219 59ft 0kts
12-Oct-17 22:03 33.675302 -117.871632 219 59ft 0kts
12-Oct-17 22:04 33.675807 -117.870314 27 59ft 12kts
12-Oct-17 22:05 33.679471 -117.868056 27 59ft 14kts
12-Oct-17 22:06 33.680916 -117.866648 116 59ft 0kts
12-Oct-17 22:07 33.680855 -117.866514 117 59ft 0kts
12-Oct-17 22:08 33.680851 -117.866504 117 59ft 0kts
12-Oct-17 22:09 33.679945 -117.866133 209 59ft 16kts
12-Oct-17 22:10 33.662058 -117.877188 206 579ft 88kts
12-Oct-17 22:11 33.636372 -117.882059 188 1448ft 86kts
12-Oct-17 22:12 33.613899 -117.884928 189 2276ft 83kts
12-Oct-17 22:13 33.594029 -117.880546 116 3017ft 82kts
12-Oct-17 22:14 33.582932 -117.855462 116 3644ft 87kts
12-Oct-17 22:15 33.571254 -117.830023 116 4247ft 87kts
12-Oct-17 22:16 33.559820 -117.804886 116 4847ft 84kts
12-Oct-17 22:17 33.546447 -117.776489 124 4997ft 111kts
12-Oct-17 22:18 33.526053 -117.748186 132 5002ft 113kts
12-Oct-17 22:19 33.503834 -117.721052 133 4998ft 113kts
12-Oct-17 22:20 33.482095 -117.693842 132 5000ft 112kts
12-Oct-17 22:21 33.460176 -117.667152 133 5000ft 112kts
12-Oct-17 22:22 33.438060 -117.640557 133 5000ft 112kts
12-Oct-17 22:23 33.415954 -117.614117 134 5000ft 112kts
12-Oct-17 22:24 33.393843 -117.587721 134 5001ft 112kts
12-Oct-17 22:25 33.371685 -117.561259 134 5000ft 112kts
12-Oct-17 22:26 33.349531 -117.534950 134 5000ft 112kts
12-Oct-17 22:27 33.327508 -117.508517 136 5000ft 112kts
12-Oct-17 22:28 33.303516 -117.484426 139 5000ft 112kts
12-Oct-17 22:29 33.279405 -117.460720 139 5000ft 112kts
12-Oct-17 22:30 33.256257 -117.435566 132 5000ft 112kts
12-Oct-17 22:31 33.236461 -117.407546 96 4991ft 113kts
12-Oct-17 22:32 33.234778 -117.369674 92 4576ft 113kts
12-Oct-17 22:33 33.232466 -117.331855 92 4070ft 113kts
12-Oct-17 22:34 33.230280 -117.294284 93 4003ft 114kts
12-Oct-17 22:35 33.227571 -117.256464 93 4000ft 114kts
12-Oct-17 22:36 33.224775 -117.218497 93 4000ft 114kts
12-Oct-17 22:37 33.221958 -117.180567 93 4015ft 114kts
12-Oct-17 22:38 33.219353 -117.142415 92 4024ft 116kts
12-Oct-17 22:39 33.217218 -117.103591 92 4000ft 116kts
12-Oct-17 22:40 33.215020 -117.065015 92 3996ft 116kts
12-Oct-17 22:41 33.194639 -117.040990 170 3617ft 121kts
12-Oct-17 22:42 33.162693 -117.033626 179 3491ft 113kts
12-Oct-17 22:43 33.154743 -117.062521 279 3514ft 108kts
12-Oct-17 22:44 33.156830 -117.097178 273 3517ft 102kts
12-Oct-17 22:44 33.156281 -117.121484 257 3015ft 76kts
12-Oct-17 22:46 33.147458 -117.155820 261 2378ft 98kts
12-Oct-17 22:47 33.145845 -117.187713 246 1874ft 95kts
12-Oct-17 22:48 33.138455 -117.217115 254 1483ft 83kts
12-Oct-17 22:49 33.134125 -117.243039 260 941ft 77kts
12-Oct-17 22:50 33.130236 -117.267563 259 428ft 68kts
12-Oct-17 22:50 33.128458 -117.279134 275 303ft 4kts
12-Oct-17 22:51 33.128786 -117.279883 306 303ft 1kts
12-Oct-17 22:53 33.129102 -117.280890 167 303ft 0kts
12-Oct-17 22:54 33.129093 -117.280888 167 303ft 0kts
12-Oct-17 22:54 33.129091 -117.280887 167 303ft 0kts
12-Oct-17 22:55 33.129091 -117.280887 167 303ft 0kts
12-Oct-17 22:56 33.129091 -117.280887 167 303ft 0kts
12-Oct-17 22:57 33.129091 -117.280887 167 303ft 0kts
12-Oct-17 22:58 33.129091 -117.280887 167 303ft 0kts

Navigation Log

Ident Type
1. KSNA Airport
2. OCN Navaid
3. KCRQ Airport